| Record Date MM/DD/YYYY | Record Time HH:MM:SS | Record Julian Date NNN day of the year | Air Temperature Max (Degrees Fahrenheit F) | Time Max Air Temperature HH:MM:SS This is the time of max air temp for the prior hour interval listed for record [Time]. | Air Temperature Min (Degrees Fahrenheit F) | Time Min Air Temperature HH:MM:SS This is the time of min air temp for the prior hour interval listed for record [Time]. | Air Temperature Observed (Degrees Fahrenheit F) This is an instantaneous reading at the record [Time]. | Relative Humidity Max (Percent) | Time Max Relative Humidity HH:MM:SS This is the time of max relative humidity for the prior hour interval listed for record [Time]. | Relative Humidity Min (Percent) | Time Min Relative Humidity HH:MM:SS This is the time of min relative humidity for the prior hour interval listed for record [Time]. | Relative Humidity Observed (Percent) This is an instantaneous reading at the record [Time]. | Precipitation (Inches n.nn) rain fall that occurred during the prior hour interval listed for record [Time]. | Wind Speed (Miles Per Hour) Resultant Speed that occurred during the prior hour interval listed for record [Time]. | Wind Direction (Degrees) Resultant Direction that occurred during the prior hour interval listed for record [Time]. | Solar Radiation (Langley's) that occurred during the prior hour interval listed for record [Time]. | Soil Temperature Average at 2 inch depth (Degrees Fahrenheit F) that occurred during the prior hour interval listed for record [Time]. | Soil Temperature Observed at 2 inch depth (Degrees Fahrenheit F) This is an instantaneous reading at the record [Time]. | Soil Temperature Average at 4 inch depth (Degrees Fahrenheit F) that occurred during the prior hour interval listed for record [Time]. | Soil Temperature Observed at 4 inch depth (Degrees Fahrenheit F) This is an instantaneous reading at the record [Time]. |
|---|---|---|---|---|---|---|---|---|---|---|---|---|---|---|---|---|---|---|---|---|
| 04/30/2026 | 0:00:00 | 120 | 63 | 23:08:03 | 62 | 23:29:00 | 62 | 89 | 23:00:05 | 81 | 23:38:00 | 83 | 0 | 7.1 | 30 | 0 | 66 | 65 | 68 | 68 |
| 04/30/2026 | 1:00:00 | 120 | 62 | 0:13:02 | 60 | 0:59:02 | 60 | 84 | 0:56:00 | 81 | 0:24:03 | 83.4 | 0 | 4.2 | 354 | 0 | 65 | 64 | 68 | 67 |
| 04/30/2026 | 2:00:00 | 120 | 60 | 1:00:01 | 58 | 1:59:03 | 58 | 85 | 1:57:04 | 82 | 1:08:01 | 84.6 | 0 | 4.8 | 11 | 0 | 64 | 63 | 67 | 67 |
| 04/30/2026 | 3:00:00 | 120 | 58 | 2:00:02 | 56 | 2:59:01 | 56 | 89 | 2:41:00 | 85 | 2:01:00 | 88 | 0 | 3.2 | 9 | 0 | 63 | 62 | 66 | 66 |
| 04/30/2026 | 4:00:00 | 120 | 57 | 3:55:04 | 56 | 3:41:05 | 56 | 88 | 3:00:03 | 83 | 3:57:02 | 83.1 | 0 | 6.8 | 15 | 0 | 62 | 61 | 65 | 65 |
| 04/30/2026 | 5:00:00 | 120 | 57 | 4:45:01 | 56 | 4:12:02 | 57 | 83 | 4:01:01 | 77 | 4:54:03 | 77.44 | 0 | 9.6 | 30 | 0 | 60 | 60 | 65 | 64 |
| 04/30/2026 | 6:00:00 | 120 | 57 | 5:00:03 | 56 | 5:36:00 | 56 | 78 | 5:08:02 | 75 | 5:53:03 | 75.76 | 0 | 8.6 | 38 | 2 | 60 | 59 | 64 | 63 |
| 04/30/2026 | 7:00:00 | 120 | 59 | 6:58:01 | 56 | 6:20:04 | 58 | 79 | 6:20:02 | 71 | 6:53:04 | 71.32 | 0 | 6.8 | 40 | 16 | 59 | 60 | 63 | 63 |
| 04/30/2026 | 8:00:00 | 120 | 60 | 7:52:04 | 58 | 7:04:02 | 60 | 73 | 7:01:00 | 61 | 7:55:01 | 64.79 | 0 | 9.1 | 48 | 37 | 62 | 63 | 63 | 63 |
| 04/30/2026 | 9:00:00 | 120 | 63 | 8:42:02 | 60 | 8:00:01 | 62 | 66 | 8:00:01 | 55 | 8:43:02 | 55.55 | 0 | 10.4 | 51 | 51 | 64 | 65 | 64 | 64 |
| 04/30/2026 | 10:00:00 | 120 | 65 | 9:47:05 | 62 | 9:00:01 | 64 | 59 | 9:00:05 | 51 | 9:44:03 | 55.45 | 0 | 8.0 | 53 | 60 | 66 | 68 | 65 | 66 |
| 04/30/2026 | 11:00:00 | 120 | 67 | 10:38:04 | 65 | 10:00:01 | 66 | 56 | 10:07:00 | 49 | 10:30:00 | 50.82 | 0 | 9.0 | 33 | 71 | 70 | 71 | 67 | 68 |
| 04/30/2026 | 12:00:00 | 120 | 68 | 11:55:03 | 65 | 11:16:03 | 67 | 56 | 11:17:00 | 47 | 11:57:00 | 49.41 | 0 | 9.5 | 27 | 73 | 72 | 73 | 68 | 69 |
| 04/30/2026 | 13:00:00 | 120 | 69 | 12:20:01 | 67 | 12:27:04 | 68 | 55 | 12:41:05 | 46 | 12:53:04 | 47.5 | 0 | 9.2 | 26 | 67 | 74 | 74 | 70 | 70 |
| 04/30/2026 | 14:00:00 | 120 | 69 | 13:08:01 | 67 | 13:16:02 | 68 | 52 | 13:21:01 | 44 | 13:06:00 | 45.56 | 0 | 8.1 | 32 | 49 | 74 | 73 | 71 | 71 |
| 04/30/2026 | 15:00:00 | 120 | 68 | 14:18:03 | 67 | 14:40:00 | 67 | 52 | 14:40:03 | 44 | 14:04:04 | 49.32 | 0 | 7.1 | 30 | 27 | 72 | 70 | 71 | 70 |
| 04/30/2026 | 16:00:00 | 120 | 67 | 15:27:00 | 66 | 16:00:00 | 66 | 52 | 15:51:00 | 45 | 15:01:03 | 50.04 | 0 | 6.1 | 39 | 21 | 70 | 69 | 70 | 70 |
| 04/30/2026 | 17:00:00 | 120 | 67 | 16:03:04 | 65 | 16:59:01 | 65 | 54 | 16:16:02 | 48 | 16:47:00 | 50.89 | 0 | 6.5 | 28 | 16 | 68 | 67 | 69 | 69 |
| 04/30/2026 | 18:00:00 | 120 | 65 | 17:01:04 | 63 | 17:59:05 | 63 | 67 | 17:57:03 | 49 | 17:10:04 | 65.75 | 0 | 4.0 | 19 | 7 | 67 | 66 | 69 | 68 |
| 04/30/2026 | 19:00:00 | 120 | 63 | 18:00:01 | 61 | 18:59:05 | 61 | 69 | 18:06:05 | 62 | 18:54:02 | 63.33 | 0 | 4.9 | 19 | 1 | 65 | 64 | 68 | 67 |
| 04/30/2026 | 20:00:00 | 120 | 61 | 19:07:02 | 59 | 19:47:05 | 60 | 65 | 19:47:02 | 60 | 19:23:01 | 62.83 | 0 | 5.4 | 33 | 0 | 63 | 63 | 67 | 66 |
| 04/30/2026 | 21:00:00 | 120 | 60 | 20:02:05 | 57 | 20:59:05 | 57 | 71 | 20:59:00 | 61 | 20:26:03 | 69.96 | 0 | 4.7 | 31 | 0 | 62 | 61 | 66 | 65 |
| 04/30/2026 | 22:00:00 | 120 | 57 | 21:14:03 | 54 | 21:43:03 | 54 | 78 | 21:41:03 | 68 | 21:14:02 | 75.96 | 0 | 3.0 | 33 | 0 | 61 | 60 | 65 | 64 |
| 04/30/2026 | 23:00:00 | 120 | 54 | 22:00:02 | 53 | 22:16:02 | 54 | 84 | 22:16:04 | 76 | 22:01:00 | 80.9 | 0 | 3.5 | 20 | 0 | 60 | 59 | 64 | 63 |
| 05/01/2026 | 0:00:00 | 121 | 56 | 23:39:05 | 54 | 23:00:01 | 55 | 81 | 23:00:01 | 71 | 23:38:05 | 78.07 | 0 | 2.3 | 36 | 0 | 59 | 59 | 63 | 63 |
| 05/01/2026 | 1:00:00 | 121 | 55 | 0:00:01 | 54 | 0:07:03 | 55 | 82 | 0:03:03 | 77 | 0:47:03 | 79.92 | 0 | 2.4 | 310 | 0 | 59 | 59 | 63 | 62 |
| 05/01/2026 | 2:00:00 | 121 | 55 | 1:01:01 | 54 | 1:43:04 | 55 | 82 | 1:15:04 | 75 | 2:00:00 | 75.26 | 0 | 2.9 | 340 | 0 | 59 | 59 | 62 | 62 |
| 05/01/2026 | 3:00:00 | 121 | 55 | 2:00:04 | 54 | 2:09:05 | 54 | 83 | 2:09:00 | 75 | 2:00:03 | 79.89 | 0 | 2.8 | 300 | 0 | 58 | 58 | 62 | 62 |
| 05/01/2026 | 4:00:00 | 121 | 54 | 3:00:01 | 53 | 3:50:02 | 53 | 83 | 3:47:05 | 79 | 3:00:04 | 81.9 | 0 | 3.4 | 335 | 0 | 58 | 58 | 61 | 61 |
| 05/01/2026 | 5:00:00 | 121 | 53 | 4:20:02 | 53 | 4:59:00 | 53 | 83 | 4:27:00 | 81 | 4:34:04 | 82.6 | 0 | 3.4 | 337 | 0 | 58 | 57 | 61 | 61 |
| 05/01/2026 | 6:00:00 | 121 | 54 | 5:13:02 | 53 | 5:00:01 | 54 | 83 | 5:00:01 | 76 | 5:16:04 | 80.9 | 0 | 4.9 | 18 | 2 | 57 | 57 | 61 | 60 |
| 05/01/2026 | 7:00:00 | 121 | 56 | 6:57:01 | 54 | 6:01:00 | 56 | 81 | 6:00:01 | 74 | 6:58:04 | 75.09 | 0 | 5.4 | 19 | 7 | 58 | 58 | 60 | 60 |
| 05/01/2026 | 8:00:00 | 121 | 58 | 8:00:00 | 56 | 7:01:01 | 58 | 77 | 7:15:03 | 72 | 7:56:04 | 74.36 | 0 | 7.1 | 23 | 14 | 58 | 59 | 60 | 61 |
| 05/01/2026 | 9:00:00 | 121 | 60 | 8:56:05 | 58 | 8:00:01 | 60 | 74 | 8:00:02 | 65 | 8:59:03 | 66.32 | 0 | 7.3 | 27 | 21 | 60 | 60 | 61 | 61 |
| 05/01/2026 | 10:00:00 | 121 | 62 | 10:00:00 | 60 | 9:00:03 | 62 | 69 | 9:46:05 | 64 | 9:05:04 | 67.05 | 0 | 6.5 | 19 | 27 | 61 | 62 | 61 | 62 |
| 05/01/2026 | 11:00:00 | 121 | 64 | 10:51:04 | 62 | 10:04:00 | 63 | 67 | 10:16:00 | 61 | 10:59:00 | 63.07 | 0 | 5.8 | 19 | 33 | 63 | 64 | 62 | 63 |
| 05/01/2026 | 12:00:00 | 121 | 65 | 11:57:05 | 63 | 11:02:00 | 65 | 64 | 11:08:02 | 58 | 11:28:00 | 60.75 | 0 | 6.2 | 16 | 36 | 65 | 66 | 63 | 64 |
| 05/01/2026 | 13:00:00 | 121 | 67 | 12:41:02 | 65 | 12:02:01 | 66 | 62 | 12:05:00 | 45 | 12:59:03 | 47.54 | 0 | 6.9 | 15 | 42 | 67 | 67 | 64 | 65 |
| 05/01/2026 | 14:00:00 | 121 | 67 | 13:10:03 | 66 | 13:14:05 | 67 | 50 | 13:24:01 | 42 | 13:28:01 | 45.41 | 0 | 8.0 | 18 | 44 | 67 | 68 | 65 | 66 |
| 05/01/2026 | 15:00:00 | 121 | 68 | 14:33:01 | 66 | 14:50:02 | 67 | 51 | 14:59:04 | 44 | 14:34:03 | 49.13 | 0 | 7.5 | 11 | 42 | 68 | 68 | 66 | 66 |
| 05/01/2026 | 16:00:00 | 121 | 67 | 15:16:02 | 65 | 16:00:00 | 65 | 55 | 15:30:04 | 47 | 15:20:03 | 51.29 | 0 | 7.3 | 359 | 38 | 69 | 68 | 67 | 67 |
| 05/01/2026 | 17:00:00 | 121 | 67 | 16:15:04 | 65 | 16:57:04 | 65 | 55 | 16:01:05 | 47 | 16:34:02 | 52.06 | 0 | 7.2 | 358 | 26 | 68 | 67 | 67 | 67 |
| 05/01/2026 | 18:00:00 | 121 | 65 | 17:09:01 | 62 | 18:00:00 | 62 | 59 | 17:53:00 | 51 | 17:00:04 | 58.4 | 0 | 5.9 | 351 | 8 | 66 | 65 | 67 | 66 |
| 05/01/2026 | 19:00:00 | 121 | 62 | 18:00:01 | 59 | 19:00:00 | 59 | 66 | 18:58:03 | 57 | 18:09:03 | 64.45 | 0 | 3.7 | 5 | 2 | 64 | 63 | 66 | 65 |
| 05/01/2026 | 20:00:00 | 121 | 59 | 19:00:01 | 57 | 19:58:02 | 57 | 75 | 19:55:04 | 64 | 19:00:01 | 74.72 | 0 | 2.9 | 9 | 0 | 62 | 61 | 65 | 64 |
| 05/01/2026 | 21:00:00 | 121 | 58 | 20:43:05 | 57 | 20:05:03 | 57 | 75 | 20:04:02 | 67 | 20:46:05 | 68.12 | 0 | 5.2 | 17 | 0 | 61 | 60 | 64 | 63 |
| 05/01/2026 | 22:00:00 | 121 | 57 | 21:01:01 | 56 | 21:58:05 | 57 | 70 | 21:29:03 | 67 | 21:46:00 | 67.31 | 0 | 3.9 | 15 | 0 | 60 | 59 | 63 | 63 |
| 05/01/2026 | 23:00:00 | 121 | 57 | 22:59:02 | 56 | 22:06:01 | 57 | 68 | 22:05:03 | 62 | 22:59:00 | 62.84 | 0 | 4.0 | 19 | 0 | 59 | 59 | 62 | 62 |
| 05/02/2026 | 0:00:00 | 122 | 57 | 23:17:02 | 57 | 23:00:02 | 57 | 63 | 23:00:02 | 56 | 23:16:04 | 57.31 | 0 | 4.1 | 52 | 0 | 58 | 58 | 62 | 61 |
| 05/02/2026 | 1:00:00 | 122 | 57 | 0:00:01 | 54 | 0:56:02 | 54 | 63 | 0:56:02 | 57 | 0:00:01 | 63.01 | 0 | 4.9 | 49 | 0 | 57 | 57 | 61 | 61 |
| 05/02/2026 | 2:00:00 | 122 | 54 | 1:10:02 | 51 | 2:00:00 | 51 | 73 | 2:00:00 | 62 | 1:09:05 | 72.62 | 0 | 4.6 | 36 | 0 | 56 | 55 | 60 | 60 |
| 05/02/2026 | 3:00:00 | 122 | 51 | 2:11:05 | 49 | 2:55:04 | 49 | 78 | 2:56:02 | 72 | 2:09:04 | 77.4 | 0 | 3.9 | 31 | 0 | 55 | 54 | 59 | 59 |
| 05/02/2026 | 4:00:00 | 122 | 50 | 3:03:04 | 48 | 3:47:00 | 48 | 80 | 3:56:04 | 76 | 3:03:04 | 80 | 0 | 4.0 | 30 | 0 | 54 | 53 | 59 | 58 |
| 05/02/2026 | 5:00:00 | 122 | 48 | 4:07:05 | 47 | 4:58:03 | 47 | 82 | 5:00:00 | 79 | 4:07:04 | 82 | 0 | 3.4 | 23 | 0 | 53 | 53 | 58 | 58 |
| 05/02/2026 | 6:00:00 | 122 | 49 | 6:00:00 | 46 | 5:25:00 | 49 | 88 | 5:26:01 | 81 | 6:00:00 | 80.9 | 0 | 3.5 | 322 | 5 | 53 | 53 | 57 | 57 |
| 05/02/2026 | 7:00:00 | 122 | 55 | 7:00:00 | 49 | 6:00:01 | 55 | 81 | 6:00:01 | 68 | 6:44:04 | 70.99 | 0 | 3.3 | 320 | 21 | 54 | 55 | 57 | 57 |
| 05/02/2026 | 8:00:00 | 122 | 60 | 7:59:04 | 55 | 7:03:00 | 60 | 71 | 7:00:02 | 61 | 8:00:00 | 60.71 | 0 | 2.2 | 317 | 39 | 57 | 60 | 58 | 58 |
| 05/02/2026 | 9:00:00 | 122 | 65 | 8:59:02 | 60 | 8:01:05 | 65 | 60 | 8:02:00 | 45 | 8:53:00 | 47.3 | 0 | 2.0 | 326 | 56 | 63 | 66 | 59 | 61 |
| 05/02/2026 | 10:00:00 | 122 | 67 | 9:57:05 | 64 | 9:05:04 | 67 | 47 | 9:11:01 | 35 | 9:40:04 | 40.38 | 0 | 3.5 | 319 | 69 | 68 | 70 | 62 | 64 |
| 05/02/2026 | 11:00:00 | 122 | 69 | 11:00:00 | 67 | 10:02:01 | 69 | 41 | 10:57:04 | 35 | 10:13:01 | 40.18 | 0 | 5.3 | 311 | 78 | 72 | 73 | 65 | 66 |
| 05/02/2026 | 12:00:00 | 122 | 70 | 11:55:05 | 68 | 11:07:02 | 69 | 40 | 11:01:00 | 31 | 11:28:05 | 35.75 | 0 | 5.6 | 313 | 78 | 74 | 75 | 67 | 68 |
| 05/02/2026 | 13:00:00 | 122 | 72 | 12:52:03 | 68 | 12:01:03 | 70 | 42 | 12:04:05 | 32 | 12:09:02 | 35.18 | 0 | 6.7 | 315 | 72 | 75 | 76 | 69 | 70 |
| 05/02/2026 | 14:00:00 | 122 | 72 | 13:36:01 | 70 | 13:00:01 | 71 | 38 | 13:00:05 | 31 | 13:30:02 | 35.36 | 0 | 6.8 | 319 | 74 | 77 | 78 | 70 | 71 |
| 05/02/2026 | 15:00:00 | 122 | 73 | 14:07:05 | 70 | 14:54:03 | 71 | 41 | 14:55:04 | 30 | 14:31:03 | 38.89 | 0 | 5.5 | 302 | 43 | 77 | 75 | 72 | 72 |
| 05/02/2026 | 16:00:00 | 122 | 72 | 15:30:03 | 70 | 15:15:03 | 72 | 40 | 15:30:02 | 34 | 15:21:01 | 35.36 | 0 | 9.6 | 331 | 47 | 75 | 75 | 72 | 72 |
| 05/02/2026 | 17:00:00 | 122 | 72 | 16:00:01 | 70 | 16:38:00 | 70 | 42 | 16:39:02 | 34 | 16:06:00 | 38.14 | 0 | 8.8 | 333 | 32 | 74 | 73 | 72 | 71 |
| 05/02/2026 | 18:00:00 | 122 | 71 | 17:21:05 | 69 | 17:58:04 | 69 | 43 | 17:47:01 | 35 | 17:09:02 | 41.62 | 0 | 6.9 | 330 | 15 | 71 | 70 | 71 | 71 |
| 05/02/2026 | 19:00:00 | 122 | 69 | 18:00:01 | 61 | 19:00:00 | 61 | 59 | 19:00:00 | 38 | 18:06:04 | 58.58 | 0 | 4.5 | 0 | 1 | 68 | 66 | 70 | 69 |
| 05/02/2026 | 20:00:00 | 122 | 60 | 19:00:01 | 54 | 19:56:02 | 55 | 78 | 19:57:03 | 59 | 19:00:01 | 77.54 | 0 | 2.7 | 9 | 0 | 65 | 64 | 68 | 67 |
| 05/02/2026 | 21:00:00 | 122 | 55 | 20:01:01 | 53 | 20:44:03 | 53 | 84 | 20:33:05 | 78 | 20:07:01 | 82.4 | 0 | 3.0 | 360 | 0 | 62 | 62 | 67 | 66 |
| 05/02/2026 | 22:00:00 | 122 | 53 | 21:00:01 | 52 | 21:59:05 | 52 | 84 | 21:23:02 | 80 | 21:54:04 | 81 | 0 | 3.2 | 6 | 0 | 61 | 60 | 65 | 64 |
| 05/02/2026 | 23:00:00 | 122 | 57 | 22:58:03 | 51 | 22:28:02 | 56 | 83 | 22:29:01 | 59 | 22:58:01 | 60.77 | 0 | 3.9 | 23 | 0 | 59 | 59 | 64 | 63 |
| 05/03/2026 | 0:00:00 | 123 | 56 | 23:00:01 | 54 | 23:59:01 | 54 | 66 | 23:59:00 | 60 | 23:00:04 | 65.51 | 0 | 7.9 | 59 | 0 | 58 | 57 | 63 | 62 |
| 05/03/2026 | 1:00:00 | 123 | 55 | 0:02:04 | 54 | 0:56:05 | 54 | 68 | 0:59:01 | 64 | 0:02:00 | 67.53 | 0 | 8.9 | 64 | 0 | 57 | 57 | 62 | 61 |
| 05/03/2026 | 2:00:00 | 123 | 54 | 1:07:03 | 49 | 1:59:05 | 49 | 79 | 2:00:00 | 67 | 1:06:03 | 78.57 | 0 | 5.6 | 92 | 0 | 56 | 56 | 61 | 60 |
| 05/03/2026 | 3:00:00 | 123 | 49 | 2:37:01 | 47 | 2:58:05 | 47 | 84 | 3:00:00 | 79 | 2:00:02 | 84.4 | 0 | 1.7 | 152 | 0 | 55 | 55 | 60 | 60 |
| 05/03/2026 | 4:00:00 | 123 | 48 | 3:13:00 | 46 | 3:47:05 | 46 | 87 | 3:51:03 | 82 | 3:14:05 | 84.8 | 0 | 1.6 | 135 | 0 | 54 | 54 | 59 | 59 |
| 05/03/2026 | 5:00:00 | 123 | 46 | 4:00:01 | 44 | 4:58:04 | 44 | 90 | 4:59:05 | 85 | 4:00:01 | 90 | 0 | 1.3 | 152 | 0 | 54 | 53 | 59 | 58 |
| 05/03/2026 | 6:00:00 | 123 | 50 | 5:59:04 | 44 | 5:16:03 | 50 | 93 | 5:21:04 | 85 | 5:59:00 | 85.1 | 0 | 1.3 | 125 | 5 | 53 | 53 | 58 | 58 |
| 05/03/2026 | 7:00:00 | 123 | 55 | 7:00:00 | 50 | 6:00:01 | 55 | 85 | 6:00:01 | 72 | 6:56:00 | 73.51 | 0 | 4.1 | 145 | 21 | 54 | 56 | 58 | 58 |
| 05/03/2026 | 8:00:00 | 123 | 60 | 7:59:00 | 55 | 7:01:04 | 60 | 74 | 7:02:03 | 56 | 7:59:05 | 55.91 | 0 | 6.4 | 154 | 39 | 58 | 60 | 58 | 59 |
| 05/03/2026 | 9:00:00 | 123 | 66 | 8:59:00 | 60 | 8:12:03 | 65 | 59 | 8:13:04 | 45 | 8:59:05 | 45.45 | 0 | 7.3 | 147 | 56 | 62 | 65 | 60 | 61 |
| 05/03/2026 | 10:00:00 | 123 | 69 | 10:00:00 | 65 | 9:01:02 | 69 | 49 | 9:01:02 | 41 | 9:54:00 | 43.42 | 0 | 7.2 | 162 | 69 | 67 | 70 | 62 | 63 |
| 05/03/2026 | 11:00:00 | 123 | 72 | 10:52:02 | 69 | 10:03:04 | 72 | 44 | 10:03:05 | 36 | 10:44:02 | 37.68 | 0 | 6.4 | 175 | 79 | 72 | 75 | 65 | 66 |
| 05/03/2026 | 12:00:00 | 123 | 75 | 11:55:03 | 71 | 11:05:03 | 74 | 41 | 11:30:04 | 33 | 11:50:03 | 36.55 | 0 | 6.9 | 191 | 83 | 77 | 79 | 68 | 69 |
| 05/03/2026 | 13:00:00 | 123 | 75 | 12:23:02 | 73 | 12:02:04 | 74 | 38 | 12:02:03 | 30 | 12:43:00 | 30.8 | 0 | 6.4 | 226 | 82 | 81 | 82 | 71 | 72 |
| 05/03/2026 | 14:00:00 | 123 | 76 | 13:56:00 | 74 | 13:04:01 | 75 | 36 | 13:48:01 | 29 | 13:07:04 | 33.25 | 0 | 6.3 | 255 | 76 | 83 | 84 | 73 | 75 |
| 05/03/2026 | 15:00:00 | 123 | 77 | 15:00:00 | 76 | 14:00:01 | 77 | 35 | 14:18:04 | 30 | 14:58:03 | 30.27 | 0 | 6.3 | 247 | 65 | 85 | 85 | 75 | 76 |
| 05/03/2026 | 16:00:00 | 123 | 78 | 15:13:00 | 76 | 15:19:04 | 77 | 35 | 15:44:01 | 28 | 15:05:00 | 31.29 | 0 | 6.0 | 259 | 51 | 84 | 84 | 77 | 77 |
| 05/03/2026 | 17:00:00 | 123 | 78 | 16:15:03 | 76 | 16:02:02 | 77 | 36 | 16:59:05 | 30 | 16:01:04 | 34.76 | 0 | 6.4 | 250 | 34 | 82 | 81 | 77 | 77 |
| 05/03/2026 | 18:00:00 | 123 | 77 | 17:23:02 | 74 | 17:59:04 | 74 | 38 | 17:58:05 | 33 | 17:26:01 | 37.36 | 0 | 5.5 | 239 | 16 | 79 | 77 | 77 | 76 |
| 05/03/2026 | 19:00:00 | 123 | 74 | 18:00:01 | 65 | 19:00:00 | 65 | 57 | 19:00:00 | 38 | 18:00:01 | 56.76 | 0 | 2.5 | 212 | 1 | 75 | 73 | 75 | 74 |
| 05/03/2026 | 20:00:00 | 123 | 65 | 19:00:01 | 60 | 19:58:01 | 60 | 72 | 19:56:05 | 57 | 19:00:01 | 69.6 | 0 | 1.9 | 142 | 0 | 71 | 70 | 73 | 72 |
| 05/03/2026 | 21:00:00 | 123 | 61 | 20:16:04 | 58 | 21:00:00 | 58 | 75 | 21:00:00 | 68 | 20:16:04 | 75.43 | 0 | 2.4 | 146 | 0 | 68 | 67 | 71 | 70 |
| 05/03/2026 | 22:00:00 | 123 | 58 | 21:00:01 | 56 | 21:31:04 | 56 | 80 | 21:38:05 | 75 | 21:00:01 | 79.16 | 0 | 2.3 | 148 | 0 | 66 | 65 | 70 | 69 |
| 05/03/2026 | 23:00:00 | 123 | 56 | 22:00:02 | 55 | 22:47:02 | 56 | 83 | 22:48:04 | 79 | 22:00:01 | 80.8 | 0 | 2.5 | 142 | 0 | 65 | 64 | 68 | 68 |
| 05/04/2026 | 0:00:00 | 124 | 57 | 23:36:00 | 56 | 23:00:03 | 56 | 82 | 23:59:04 | 80 | 23:15:02 | 81.6 | 0 | 3.3 | 127 | 0 | 63 | 63 | 67 | 67 |
| 05/04/2026 | 1:00:00 | 124 | 57 | 0:57:02 | 56 | 0:00:02 | 57 | 82 | 0:40:02 | 81 | 0:08:01 | 81.1 | 0 | 3.2 | 127 | 0 | 62 | 62 | 66 | 66 |
| 05/04/2026 | 2:00:00 | 124 | 57 | 1:00:01 | 55 | 1:59:03 | 56 | 85 | 2:00:00 | 81 | 1:01:01 | 85.1 | 0 | 2.6 | 134 | 0 | 62 | 61 | 65 | 65 |
| 05/04/2026 | 3:00:00 | 124 | 56 | 3:00:00 | 55 | 2:22:01 | 56 | 86 | 2:23:04 | 85 | 2:04:05 | 85.5 | 0 | 2.8 | 132 | 0 | 61 | 61 | 65 | 64 |
| 05/04/2026 | 4:00:00 | 124 | 56 | 3:11:00 | 55 | 3:40:01 | 55 | 86 | 3:41:03 | 85 | 3:12:01 | 86.1 | 0 | 3.2 | 133 | 0 | 60 | 60 | 64 | 64 |
| 05/04/2026 | 5:00:00 | 124 | 55 | 4:00:02 | 54 | 4:55:03 | 54 | 89 | 4:58:05 | 86 | 4:00:01 | 88.7 | 0 | 3.4 | 137 | 0 | 60 | 59 | 63 | 63 |
| 05/04/2026 | 6:00:00 | 124 | 57 | 6:00:00 | 54 | 5:13:05 | 57 | 89 | 5:18:02 | 88 | 5:32:00 | 87.7 | 0 | 3.1 | 128 | 3 | 59 | 59 | 63 | 62 |
| 05/04/2026 | 7:00:00 | 124 | 62 | 6:59:04 | 57 | 6:00:01 | 62 | 88 | 6:00:02 | 78 | 7:00:00 | 78.12 | 0 | 4.3 | 142 | 15 | 60 | 61 | 62 | 62 |
| 05/04/2026 | 8:00:00 | 124 | 69 | 7:59:05 | 62 | 7:00:01 | 69 | 78 | 7:02:00 | 63 | 7:56:05 | 64.13 | 0 | 5.7 | 184 | 36 | 63 | 65 | 63 | 63 |
| 05/04/2026 | 9:00:00 | 124 | 74 | 8:58:03 | 69 | 8:10:03 | 73 | 64 | 8:03:03 | 53 | 8:59:02 | 54.24 | 0 | 6.8 | 213 | 50 | 68 | 70 | 64 | 65 |
| 05/04/2026 | 10:00:00 | 124 | 77 | 9:58:03 | 73 | 9:00:01 | 77 | 55 | 9:02:01 | 47 | 9:59:03 | 49.86 | 0 | 8.7 | 215 | 69 | 73 | 76 | 67 | 68 |
| 05/04/2026 | 11:00:00 | 124 | 81 | 10:50:01 | 77 | 10:00:01 | 80 | 51 | 10:00:03 | 38 | 10:59:04 | 39.3 | 0 | 10.0 | 216 | 78 | 78 | 80 | 70 | 71 |
| 05/04/2026 | 12:00:00 | 124 | 83 | 11:27:02 | 80 | 11:04:05 | 81 | 41 | 11:13:03 | 33 | 11:57:05 | 35.15 | 0 | 11.8 | 220 | 82 | 82 | 84 | 73 | 74 |
| 05/04/2026 | 13:00:00 | 124 | 84 | 12:58:00 | 80 | 12:08:05 | 83 | 37 | 12:11:03 | 32 | 12:59:04 | 32.52 | 0 | 13.4 | 220 | 81 | 85 | 86 | 75 | 76 |
| 05/04/2026 | 14:00:00 | 124 | 83 | 13:02:01 | 82 | 13:06:04 | 82 | 36 | 13:07:02 | 31 | 13:39:04 | 33.07 | 0 | 13.8 | 216 | 75 | 86 | 86 | 77 | 78 |
| 05/04/2026 | 15:00:00 | 124 | 84 | 14:31:02 | 81 | 14:39:03 | 82 | 37 | 14:52:05 | 32 | 14:03:04 | 34.85 | 0 | 13.8 | 208 | 64 | 86 | 86 | 78 | 79 |
| 05/04/2026 | 16:00:00 | 124 | 82 | 15:14:04 | 80 | 15:56:01 | 80 | 38 | 15:54:02 | 34 | 15:01:01 | 36.16 | 0 | 14.2 | 217 | 49 | 85 | 85 | 79 | 79 |
| 05/04/2026 | 17:00:00 | 124 | 81 | 16:07:03 | 78 | 16:27:03 | 79 | 39 | 16:37:04 | 35 | 16:08:01 | 38.19 | 0 | 13.3 | 212 | 29 | 83 | 82 | 79 | 79 |
| 05/04/2026 | 18:00:00 | 124 | 79 | 17:00:04 | 75 | 17:59:05 | 75 | 43 | 17:58:02 | 38 | 17:04:03 | 43.01 | 0 | 11.2 | 216 | 13 | 80 | 78 | 78 | 78 |
| 05/04/2026 | 19:00:00 | 124 | 75 | 18:00:01 | 70 | 18:59:05 | 70 | 54 | 19:00:00 | 43 | 18:01:02 | 54.35 | 0 | 6.6 | 200 | 2 | 77 | 75 | 77 | 76 |
| 05/04/2026 | 20:00:00 | 124 | 70 | 19:00:01 | 65 | 20:00:00 | 65 | 66 | 20:00:00 | 54 | 19:00:03 | 66.26 | 0 | 4.2 | 183 | 0 | 74 | 72 | 75 | 74 |
| 05/04/2026 | 21:00:00 | 124 | 65 | 20:00:01 | 62 | 20:56:01 | 62 | 76 | 20:55:05 | 66 | 20:00:01 | 74.78 | 0 | 2.6 | 143 | 0 | 71 | 70 | 74 | 73 |
| 05/04/2026 | 22:00:00 | 124 | 63 | 21:11:04 | 61 | 22:00:00 | 61 | 78 | 22:00:00 | 74 | 21:09:05 | 78 | 0 | 2.8 | 146 | 0 | 70 | 69 | 72 | 72 |
| 05/04/2026 | 23:00:00 | 124 | 61 | 22:00:01 | 59 | 22:50:00 | 59 | 82 | 22:50:03 | 78 | 22:00:01 | 81.3 | 0 | 2.8 | 142 | 0 | 68 | 67 | 71 | 70 |
| 05/05/2026 | 0:00:00 | 125 | 59 | 23:00:05 | 59 | 23:58:03 | 59 | 83 | 23:59:04 | 81 | 23:01:01 | 82.6 | 0 | 2.8 | 138 | 0 | 67 | 66 | 70 | 69 |
| 05/05/2026 | 1:00:00 | 125 | 59 | 1:00:00 | 58 | 0:15:03 | 59 | 84 | 0:18:01 | 82 | 0:48:02 | 82.1 | 0 | 3.0 | 135 | 0 | 66 | 65 | 69 | 68 |
| 05/05/2026 | 2:00:00 | 125 | 62 | 1:55:04 | 59 | 1:17:03 | 62 | 84 | 1:40:02 | 78 | 1:56:01 | 77.78 | 0 | 3.8 | 153 | 0 | 65 | 65 | 68 | 68 |
| 05/05/2026 | 3:00:00 | 125 | 62 | 2:26:02 | 62 | 2:44:02 | 62 | 78 | 2:48:04 | 77 | 2:26:01 | 77.78 | 0 | 5.4 | 171 | 0 | 65 | 65 | 67 | 67 |
| 05/05/2026 | 4:00:00 | 125 | 62 | 3:00:01 | 60 | 3:59:03 | 60 | 81 | 4:00:00 | 78 | 3:00:01 | 80.7 | 0 | 6.0 | 173 | 0 | 64 | 64 | 67 | 67 |
| 05/05/2026 | 5:00:00 | 125 | 60 | 4:01:01 | 60 | 5:00:00 | 60 | 83 | 5:00:00 | 81 | 4:01:02 | 82.5 | 0 | 5.5 | 172 | 0 | 64 | 63 | 66 | 66 |
| 05/05/2026 | 6:00:00 | 125 | 61 | 5:55:03 | 59 | 5:08:03 | 61 | 84 | 5:15:04 | 80 | 5:54:00 | 80.6 | 0 | 4.4 | 165 | 2 | 63 | 63 | 66 | 66 |
| 05/05/2026 | 7:00:00 | 125 | 64 | 6:59:04 | 61 | 6:00:03 | 64 | 81 | 6:00:01 | 76 | 6:58:04 | 76.74 | 0 | 5.6 | 164 | 7 | 64 | 64 | 66 | 66 |
| 05/05/2026 | 8:00:00 | 125 | 65 | 7:59:03 | 64 | 7:00:01 | 65 | 77 | 7:00:01 | 75 | 7:57:05 | 75.16 | 0 | 6.4 | 166 | 6 | 65 | 65 | 66 | 66 |
| 05/05/2026 | 9:00:00 | 125 | 67 | 8:55:05 | 65 | 8:00:04 | 67 | 76 | 8:39:02 | 73 | 8:59:04 | 73.13 | 0 | 8.5 | 167 | 14 | 66 | 67 | 66 | 66 |
| 05/05/2026 | 10:00:00 | 125 | 68 | 9:25:05 | 66 | 9:41:02 | 67 | 79 | 9:45:01 | 73 | 9:00:02 | 76.6 | 0 | 10.6 | 163 | 16 | 67 | 68 | 67 | 67 |
| 05/05/2026 | 11:00:00 | 125 | 70 | 10:59:05 | 67 | 10:01:05 | 70 | 77 | 10:03:00 | 74 | 10:32:04 | 74.97 | 0 | 10.5 | 165 | 18 | 68 | 69 | 67 | 68 |
| 05/05/2026 | 12:00:00 | 125 | 72 | 11:31:03 | 70 | 11:07:01 | 72 | 75 | 11:55:02 | 73 | 11:28:01 | 75 | 0 | 10.9 | 170 | 16 | 70 | 70 | 68 | 68 |
| 05/05/2026 | 13:00:00 | 125 | 72 | 12:38:01 | 70 | 12:47:03 | 71 | 81 | 12:50:01 | 75 | 12:00:04 | 79.07 | 0 | 10.8 | 180 | 9 | 70 | 70 | 69 | 69 |
| 05/05/2026 | 14:00:00 | 125 | 73 | 14:00:00 | 69 | 13:15:05 | 73 | 87 | 13:15:04 | 77 | 14:00:00 | 77.27 | 0 | 9.9 | 184 | 14 | 70 | 70 | 69 | 69 |
| 05/05/2026 | 15:00:00 | 125 | 75 | 14:57:04 | 73 | 14:07:00 | 75 | 77 | 14:00:01 | 72 | 14:58:02 | 71.91 | 0 | 11.5 | 181 | 17 | 71 | 71 | 69 | 69 |
| 05/05/2026 | 16:00:00 | 125 | 76 | 15:15:01 | 74 | 15:47:01 | 74 | 75 | 16:00:00 | 71 | 15:16:00 | 74.7 | 0 | 12.1 | 190 | 11 | 72 | 72 | 70 | 70 |
| 05/05/2026 | 17:00:00 | 125 | 74 | 16:00:01 | 71 | 16:35:03 | 72 | 85 | 16:35:01 | 75 | 16:02:01 | 83.6 | 0 | 10.8 | 190 | 3 | 71 | 70 | 70 | 70 |
| 05/05/2026 | 18:00:00 | 125 | 72 | 17:53:00 | 72 | 17:02:00 | 72 | 84 | 17:01:00 | 83 | 17:58:01 | 82.5 | 0 | 8.6 | 176 | 4 | 70 | 70 | 70 | 70 |
| 05/05/2026 | 19:00:00 | 125 | 72 | 18:00:04 | 71 | 18:58:02 | 71 | 83 | 18:01:05 | 82 | 18:42:03 | 82.6 | 0 | 6.2 | 165 | 1 | 70 | 70 | 70 | 69 |
| 05/05/2026 | 20:00:00 | 125 | 72 | 19:56:01 | 71 | 19:38:00 | 72 | 84 | 19:38:03 | 81 | 19:56:05 | 81.6 | 0 | 5.1 | 157 | 0 | 69 | 69 | 69 | 69 |
| 05/05/2026 | 21:00:00 | 125 | 72 | 20:34:04 | 71 | 20:19:02 | 71 | 83 | 20:18:01 | 81 | 20:34:02 | 82.4 | 0 | 4.5 | 166 | 0 | 69 | 69 | 69 | 69 |
| 05/05/2026 | 22:00:00 | 125 | 72 | 21:06:00 | 71 | 21:37:04 | 71 | 83 | 21:43:00 | 82 | 21:08:01 | 83.2 | 0 | 5.3 | 168 | 0 | 69 | 69 | 69 | 69 |
| 05/05/2026 | 23:00:00 | 125 | 73 | 22:49:05 | 71 | 22:00:03 | 73 | 84 | 22:25:04 | 82 | 22:51:04 | 82.2 | 0 | 6.0 | 179 | 0 | 69 | 69 | 69 | 69 |
| 05/06/2026 | 0:00:00 | 126 | 75 | 23:59:00 | 73 | 23:00:01 | 75 | 82 | 23:09:00 | 81 | 23:40:00 | 81 | 0 | 8.9 | 202 | 0 | 69 | 69 | 69 | 69 |
| 05/06/2026 | 1:00:00 | 126 | 75 | 0:01:04 | 74 | 0:59:03 | 74 | 82 | 1:00:00 | 81 | 0:02:03 | 82.3 | 0 | 10.5 | 208 | 0 | 69 | 69 | 69 | 69 |
| 05/06/2026 | 2:00:00 | 126 | 74 | 1:03:02 | 74 | 1:47:01 | 74 | 85 | 2:00:00 | 82 | 1:04:03 | 84.9 | 0 | 10.3 | 208 | 0 | 70 | 70 | 69 | 69 |
| 05/06/2026 | 3:00:00 | 126 | 75 | 2:10:01 | 59 | 3:00:00 | 59 | 93 | 2:55:04 | 71 | 2:29:00 | 92.2 | 0.03 | 10.7 | 287 | 0 | 69 | 68 | 69 | 69 |
| 05/06/2026 | 4:00:00 | 126 | 59 | 3:00:01 | 56 | 3:59:02 | 56 | 95 | 3:36:03 | 92 | 3:00:01 | 94.6 | 0.03 | 8.1 | 355 | 0 | 67 | 65 | 69 | 68 |
| 05/06/2026 | 5:00:00 | 126 | 57 | 4:26:00 | 55 | 4:46:05 | 56 | 97 | 4:58:01 | 94 | 4:29:03 | 97.3 | 0.36 | 6.5 | 7 | 0 | 65 | 63 | 68 | 67 |
| 05/06/2026 | 6:00:00 | 126 | 57 | 5:23:01 | 55 | 5:59:04 | 55 | 98 | 5:39:01 | 97 | 5:49:05 | 97.3 | 0.01 | 3.2 | 314 | 1 | 63 | 63 | 66 | 66 |
| 05/06/2026 | 7:00:00 | 126 | 57 | 6:32:02 | 55 | 6:04:05 | 57 | 98 | 6:16:02 | 97 | 6:54:01 | 96.7 | 0 | 5.0 | 359 | 3 | 63 | 63 | 66 | 65 |
| 05/06/2026 | 8:00:00 | 126 | 57 | 7:09:05 | 56 | 7:55:05 | 56 | 97 | 7:04:02 | 95 | 7:48:05 | 96.2 | 0.01 | 6.6 | 3 | 6 | 63 | 63 | 65 | 65 |
| 05/06/2026 | 9:00:00 | 126 | 57 | 8:16:02 | 55 | 8:42:01 | 56 | 97 | 8:05:05 | 94 | 8:20:03 | 95.9 | 0.13 | 7.9 | 5 | 11 | 63 | 63 | 65 | 65 |
| 05/06/2026 | 10:00:00 | 126 | 56 | 9:49:00 | 56 | 9:14:02 | 56 | 96 | 9:05:05 | 93 | 9:55:01 | 93.2 | 0 | 6.7 | 7 | 12 | 64 | 64 | 65 | 65 |
| 05/06/2026 | 11:00:00 | 126 | 56 | 10:00:05 | 55 | 10:58:04 | 55 | 95 | 10:41:00 | 93 | 10:00:01 | 94.4 | 0 | 8.1 | 351 | 11 | 64 | 64 | 65 | 65 |
| 05/06/2026 | 12:00:00 | 126 | 56 | 11:54:02 | 55 | 11:03:00 | 56 | 95 | 11:45:00 | 93 | 11:19:03 | 93.2 | 0 | 7.2 | 4 | 16 | 64 | 64 | 65 | 65 |
| 05/06/2026 | 13:00:00 | 126 | 56 | 12:50:04 | 55 | 12:12:04 | 56 | 95 | 12:29:03 | 92 | 12:51:03 | 93.6 | 0 | 6.6 | 349 | 15 | 64 | 64 | 65 | 65 |
| 05/06/2026 | 14:00:00 | 126 | 56 | 13:04:03 | 55 | 13:58:03 | 55 | 94 | 13:35:03 | 92 | 13:58:03 | 91.8 | 0 | 9.3 | 347 | 9 | 64 | 63 | 65 | 65 |
| 05/06/2026 | 15:00:00 | 126 | 55 | 14:59:04 | 54 | 14:34:02 | 55 | 94 | 14:59:03 | 92 | 14:26:03 | 93.9 | 0.02 | 7.3 | 15 | 9 | 63 | 62 | 65 | 64 |
| 05/06/2026 | 16:00:00 | 126 | 57 | 15:34:03 | 55 | 15:00:04 | 56 | 95 | 15:06:03 | 91 | 15:32:04 | 91.4 | 0 | 7.3 | 30 | 22 | 64 | 64 | 64 | 64 |
| 05/06/2026 | 17:00:00 | 126 | 56 | 16:28:01 | 56 | 16:02:05 | 56 | 93 | 16:28:01 | 91 | 16:05:03 | 91.9 | 0 | 6.1 | 20 | 6 | 63 | 63 | 64 | 64 |
| 05/06/2026 | 18:00:00 | 126 | 56 | 17:13:01 | 56 | 17:51:01 | 56 | 93 | 17:54:04 | 91 | 17:03:01 | 92.9 | 0 | 6.6 | 16 | 2 | 63 | 62 | 64 | 64 |
| 05/06/2026 | 19:00:00 | 126 | 56 | 18:03:03 | 56 | 18:39:04 | 56 | 93 | 18:33:00 | 91 | 18:59:03 | 91.5 | 0 | 7.0 | 17 | 0 | 62 | 61 | 64 | 63 |
| 05/06/2026 | 20:00:00 | 126 | 56 | 19:00:05 | 55 | 19:58:00 | 55 | 92 | 19:34:00 | 91 | 19:47:02 | 91.4 | 0 | 6.7 | 27 | 0 | 61 | 60 | 63 | 63 |
| 05/06/2026 | 21:00:00 | 126 | 55 | 20:59:01 | 55 | 20:21:03 | 55 | 92 | 20:29:00 | 90 | 20:58:04 | 89.9 | 0 | 6.8 | 15 | 0 | 60 | 60 | 63 | 62 |
| 05/06/2026 | 22:00:00 | 126 | 56 | 21:01:00 | 55 | 21:58:04 | 55 | 92 | 22:00:00 | 90 | 21:00:01 | 92.2 | 0 | 5.8 | 16 | 0 | 60 | 60 | 62 | 62 |
| 05/06/2026 | 23:00:00 | 126 | 55 | 22:59:03 | 55 | 22:21:04 | 55 | 92 | 22:00:01 | 90 | 22:58:03 | 89.8 | 0 | 6.1 | 22 | 0 | 59 | 59 | 62 | 62 |
| 05/07/2026 | 0:00:00 | 127 | 55 | 23:00:02 | 54 | 23:52:02 | 54 | 93 | 23:56:01 | 90 | 23:00:02 | 92.1 | 0 | 4.9 | 13 | 0 | 59 | 59 | 62 | 61 |
| 05/07/2026 | 1:00:00 | 127 | 55 | 0:00:05 | 54 | 0:31:02 | 54 | 94 | 0:46:03 | 92 | 0:00:05 | 93.5 | 0 | 3.4 | 1 | 0 | 59 | 59 | 61 | 61 |
| 05/07/2026 | 2:00:00 | 127 | 54 | 1:10:04 | 54 | 1:38:03 | 54 | 94 | 1:14:00 | 93 | 1:44:03 | 92.7 | 0 | 3.9 | 352 | 0 | 59 | 59 | 61 | 61 |
| 05/07/2026 | 3:00:00 | 127 | 54 | 2:08:04 | 53 | 2:58:02 | 53 | 94 | 2:42:04 | 93 | 2:13:04 | 93.6 | 0 | 3.5 | 340 | 0 | 58 | 58 | 61 | 61 |
| 05/07/2026 | 4:00:00 | 127 | 54 | 3:04:05 | 53 | 3:58:04 | 53 | 95 | 4:00:00 | 94 | 3:08:00 | 95.4 | 0 | 3.6 | 339 | 0 | 58 | 57 | 60 | 60 |
| Average | 63.26 | 60.97 | 62.03 | 72.83 | 66.45 | 69.68 | 0 | 6.05 | 17.65 | 65.76 | 65.67 | 66.25 | 66.17 | |||||||
| Total | 0.59 |